Hauptseite
METAR-TAF:

METAR-TAF

Flughäfen :

Flughafen Salak

Maroua, Kamerun

Breite: 10-27N, Länge: 014-15E, Höhe: 423 m

Beobachtung

Neuester Wetterbericht von vor 17 Stunden und 31 Minuten, um 13:00 UTC
Wind 7 kt aus Südwest
Temperatur 28°C
Luftfeuchtigkeit 70%
Luftdruck 1011 hPa
Sichtweite 10 km oder mehr
Leicht bewölkt in der Höhe von 4000 ft

METAR: FKKL 241300Z 23007KT 9999 FEW040 28/22 Q1011

Zeit: 07:31 (06:31 UTC)

Prognose

Neuester Wetterbericht von vor 25 Stunden und 31 Minuten, um 05:00 UTC
Gültige Prognose vom 24 um 06 UTC bis 24 um 18 UTC
Wind 10 kt aus Süd/Südwest
Sichtweite 10 km oder mehr
Leicht bewölkt in der Höhe von 4000 ft

TAF: FKKL 240500Z 2406/2418 21010KT 9999 FEW040

Wetterbeobachtungen und Prognosen von mehr als 4000 Flughäfen (METAR und TAF Bericht).

Die verfügbaren Stationen werden durch gelbe und rote Markierungen auf der Karte dargestellt.

Führen Sie die Maus auf sie, um den Namen der Station zu sehen.

Darauf klicken, um die Beobachtung von Wetterbeobachtungen und Prognosen zu sehen.

Um die Karte zu ändern : klicken Sie auf den grünen Tasten mit einem schwarzen Kreuz Zum Vergrößern, auf den grünen Button mit einem Gedankenstrich zu verkleinern, oder auf die grünen Pfeile für benachbarte Karten.


METAR-TAF: